sensor_id;sensor_type;location;lat;lon;timestamp;P1;durP1;ratioP1;P2;durP2;ratioP2
82473;SDS011;72350;53.232;6.556;2023-09-18T00:01:43;29.65;;;26.13;;
82473;SDS011;72350;53.232;6.556;2023-09-18T00:04:11;28.60;;;24.55;;
82473;SDS011;72350;53.232;6.556;2023-09-18T00:06:39;30.88;;;26.40;;
82473;SDS011;72350;53.232;6.556;2023-09-18T00:09:08;35.08;;;30.42;;
82473;SDS011;72350;53.232;6.556;2023-09-18T00:11:39;36.08;;;29.27;;
82473;SDS011;72350;53.232;6.556;2023-09-18T00:14:07;27.90;;;24.65;;
82473;SDS011;72350;53.232;6.556;2023-09-18T00:16:36;48.28;;;36.13;;
82473;SDS011;72350;53.232;6.556;2023-09-18T00:19:23;104.85;;;74.68;;
82473;SDS011;72350;53.232;6.556;2023-09-18T00:21:51;35.85;;;30.35;;
82473;SDS011;72350;53.232;6.556;2023-09-18T00:24:22;81.63;;;58.83;;
82473;SDS011;72350;53.232;6.556;2023-09-18T00:26:51;59.85;;;44.30;;
82473;SDS011;72350;53.232;6.556;2023-09-18T00:29:19;41.38;;;33.60;;
82473;SDS011;72350;53.232;6.556;2023-09-18T00:31:48;177.73;;;125.53;;
82473;SDS011;72350;53.232;6.556;2023-09-18T00:34:16;56.75;;;45.58;;
82473;SDS011;72350;53.232;6.556;2023-09-18T00:36:44;113.60;;;85.93;;
82473;SDS011;72350;53.232;6.556;2023-09-18T00:39:12;75.57;;;55.97;;
82473;SDS011;72350;53.232;6.556;2023-09-18T00:41:41;97.97;;;72.50;;
82473;SDS011;72350;53.232;6.556;2023-09-18T00:44:10;46.53;;;38.83;;
82473;SDS011;72350;53.232;6.556;2023-09-18T00:46:38;40.60;;;34.58;;
82473;SDS011;72350;53.232;6.556;2023-09-18T00:49:06;32.90;;;28.25;;
82473;SDS011;72350;53.232;6.556;2023-09-18T00:51:34;32.08;;;28.45;;
82473;SDS011;72350;53.232;6.556;2023-09-18T00:54:02;47.25;;;37.45;;
82473;SDS011;72350;53.232;6.556;2023-09-18T00:56:32;37.30;;;32.25;;
82473;SDS011;72350;53.232;6.556;2023-09-18T00:59:01;36.40;;;31.30;;
82473;SDS011;72350;53.232;6.556;2023-09-18T01:01:30;36.58;;;32.47;;
82473;SDS011;72350;53.232;6.556;2023-09-18T01:03:59;34.30;;;29.92;;
82473;SDS011;72350;53.232;6.556;2023-09-18T01:06:27;33.92;;;29.63;;
82473;SDS011;72350;53.232;6.556;2023-09-18T01:08:57;53.60;;;42.75;;
82473;SDS011;72350;53.232;6.556;2023-09-18T01:11:29;53.75;;;41.45;;
82473;SDS011;72350;53.232;6.556;2023-09-18T01:14:06;39.30;;;33.08;;
82473;SDS011;72350;53.232;6.556;2023-09-18T01:16:44;80.10;;;59.35;;
82473;SDS011;72350;53.232;6.556;2023-09-18T01:19:36;35.15;;;29.80;;
82473;SDS011;72350;53.232;6.556;2023-09-18T01:22:05;50.22;;;41.20;;
82473;SDS011;72350;53.232;6.556;2023-09-18T01:24:35;35.08;;;30.55;;
82473;SDS011;72350;53.232;6.556;2023-09-18T01:27:05;37.28;;;32.63;;
82473;SDS011;72350;53.232;6.556;2023-09-18T01:29:34;36.60;;;32.63;;
82473;SDS011;72350;53.232;6.556;2023-09-18T01:32:02;38.17;;;32.63;;
82473;SDS011;72350;53.232;6.556;2023-09-18T01:34:33;35.95;;;32.08;;
82473;SDS011;72350;53.232;6.556;2023-09-18T01:37:03;37.60;;;33.42;;
82473;SDS011;72350;53.232;6.556;2023-09-18T01:39:32;32.78;;;29.17;;
82473;SDS011;72350;53.232;6.556;2023-09-18T01:42:03;34.17;;;28.98;;
82473;SDS011;72350;53.232;6.556;2023-09-18T01:44:33;35.42;;;30.80;;
82473;SDS011;72350;53.232;6.556;2023-09-18T01:47:01;35.13;;;28.27;;
82473;SDS011;72350;53.232;6.556;2023-09-18T01:49:31;31.95;;;28.30;;
82473;SDS011;72350;53.232;6.556;2023-09-18T01:52:01;37.42;;;32.20;;
82473;SDS011;72350;53.232;6.556;2023-09-18T01:54:30;33.83;;;30.17;;
82473;SDS011;72350;53.232;6.556;2023-09-18T01:56:58;37.08;;;31.67;;
82473;SDS011;72350;53.232;6.556;2023-09-18T01:59:27;35.92;;;31.35;;
82473;SDS011;72350;53.232;6.556;2023-09-18T02:01:56;43.35;;;34.33;;
82473;SDS011;72350;53.232;6.556;2023-09-18T02:04:25;51.42;;;40.95;;
82473;SDS011;72350;53.232;6.556;2023-09-18T02:07:13;48.83;;;38.17;;
82473;SDS011;72350;53.232;6.556;2023-09-18T02:09:42;42.20;;;33.45;;
82473;SDS011;72350;53.232;6.556;2023-09-18T02:12:09;36.45;;;31.20;;
82473;SDS011;72350;53.232;6.556;2023-09-18T02:14:45;36.03;;;32.22;;
82473;SDS011;72350;53.232;6.556;2023-09-18T02:17:13;36.42;;;32.22;;
82473;SDS011;72350;53.232;6.556;2023-09-18T02:19:40;37.53;;;31.30;;
82473;SDS011;72350;53.232;6.556;2023-09-18T02:22:09;34.25;;;29.98;;
82473;SDS011;72350;53.232;6.556;2023-09-18T02:24:37;40.05;;;33.45;;
82473;SDS011;72350;53.232;6.556;2023-09-18T02:27:05;35.60;;;30.85;;
82473;SDS011;72350;53.232;6.556;2023-09-18T02:29:33;36.55;;;30.50;;
82473;SDS011;72350;53.232;6.556;2023-09-18T02:32:03;35.33;;;31.13;;
82473;SDS011;72350;53.232;6.556;2023-09-18T02:34:31;37.28;;;31.70;;
82473;SDS011;72350;53.232;6.556;2023-09-18T02:37:00;31.38;;;27.95;;
82473;SDS011;72350;53.232;6.556;2023-09-18T02:39:27;33.03;;;28.80;;
82473;SDS011;72350;53.232;6.556;2023-09-18T02:41:55;40.28;;;32.78;;
82473;SDS011;72350;53.232;6.556;2023-09-18T02:44:23;37.70;;;31.35;;
82473;SDS011;72350;53.232;6.556;2023-09-18T02:46:51;33.30;;;29.42;;
82473;SDS011;72350;53.232;6.556;2023-09-18T02:49:20;36.15;;;30.20;;
82473;SDS011;72350;53.232;6.556;2023-09-18T02:51:48;34.38;;;29.08;;
82473;SDS011;72350;53.232;6.556;2023-09-18T02:54:17;39.40;;;31.88;;
82473;SDS011;72350;53.232;6.556;2023-09-18T02:56:45;31.17;;;27.83;;
82473;SDS011;72350;53.232;6.556;2023-09-18T02:59:13;32.67;;;29.08;;
82473;SDS011;72350;53.232;6.556;2023-09-18T03:01:40;29.05;;;25.95;;
82473;SDS011;72350;53.232;6.556;2023-09-18T03:04:08;28.98;;;25.77;;
82473;SDS011;72350;53.232;6.556;2023-09-18T03:06:39;35.30;;;27.48;;
82473;SDS011;72350;53.232;6.556;2023-09-18T03:09:08;28.13;;;25.15;;
82473;SDS011;72350;53.232;6.556;2023-09-18T03:11:37;28.08;;;25.08;;
82473;SDS011;72350;53.232;6.556;2023-09-18T03:14:05;30.83;;;27.42;;
82473;SDS011;72350;53.232;6.556;2023-09-18T03:16:33;29.58;;;26.40;;
82473;SDS011;72350;53.232;6.556;2023-09-18T03:19:01;33.33;;;26.88;;
82473;SDS011;72350;53.232;6.556;2023-09-18T03:21:31;29.70;;;25.98;;
82473;SDS011;72350;53.232;6.556;2023-09-18T03:24:03;29.42;;;25.83;;
82473;SDS011;72350;53.232;6.556;2023-09-18T03:26:31;34.03;;;29.38;;
82473;SDS011;72350;53.232;6.556;2023-09-18T03:28:59;27.58;;;24.60;;
82473;SDS011;72350;53.232;6.556;2023-09-18T03:31:27;29.13;;;25.90;;
82473;SDS011;72350;53.232;6.556;2023-09-18T03:33:56;27.50;;;24.55;;
82473;SDS011;72350;53.232;6.556;2023-09-18T03:36:26;27.80;;;24.55;;
82473;SDS011;72350;53.232;6.556;2023-09-18T03:38:54;25.98;;;23.17;;
82473;SDS011;72350;53.232;6.556;2023-09-18T03:41:23;27.25;;;24.38;;
82473;SDS011;72350;53.232;6.556;2023-09-18T03:43:54;27.55;;;23.63;;
82473;SDS011;72350;53.232;6.556;2023-09-18T03:46:22;26.10;;;23.30;;
82473;SDS011;72350;53.232;6.556;2023-09-18T03:48:50;25.13;;;22.17;;
82473;SDS011;72350;53.232;6.556;2023-09-18T03:51:18;28.02;;;23.88;;
82473;SDS011;72350;53.232;6.556;2023-09-18T03:53:47;27.52;;;24.55;;
82473;SDS011;72350;53.232;6.556;2023-09-18T03:56:15;25.77;;;22.33;;
82473;SDS011;72350;53.232;6.556;2023-09-18T03:58:49;29.30;;;20.55;;
82473;SDS011;72350;53.232;6.556;2023-09-18T04:01:18;30.27;;;22.95;;
82473;SDS011;72350;53.232;6.556;2023-09-18T04:03:46;24.58;;;22.08;;
82473;SDS011;72350;53.232;6.556;2023-09-18T04:06:14;29.55;;;23.25;;
82473;SDS011;72350;53.232;6.556;2023-09-18T04:08:41;28.52;;;22.60;;
82473;SDS011;72350;53.232;6.556;2023-09-18T04:11:09;27.52;;;23.33;;
82473;SDS011;72350;53.232;6.556;2023-09-18T04:13:37;26.13;;;23.23;;
82473;SDS011;72350;53.232;6.556;2023-09-18T04:16:07;27.02;;;24.20;;
82473;SDS011;72350;53.232;6.556;2023-09-18T04:18:35;24.35;;;21.70;;
82473;SDS011;72350;53.232;6.556;2023-09-18T04:21:03;24.42;;;21.65;;
82473;SDS011;72350;53.232;6.556;2023-09-18T04:23:30;23.50;;;21.10;;
82473;SDS011;72350;53.232;6.556;2023-09-18T04:26:00;26.33;;;20.23;;
82473;SDS011;72350;53.232;6.556;2023-09-18T04:28:28;23.80;;;20.20;;
82473;SDS011;72350;53.232;6.556;2023-09-18T04:30:56;20.92;;;18.70;;
82473;SDS011;72350;53.232;6.556;2023-09-18T04:33:27;22.13;;;19.27;;
82473;SDS011;72350;53.232;6.556;2023-09-18T04:35:56;24.10;;;19.52;;
82473;SDS011;72350;53.232;6.556;2023-09-18T04:38:27;20.38;;;18.27;;
82473;SDS011;72350;53.232;6.556;2023-09-18T04:40:58;26.42;;;19.70;;
82473;SDS011;72350;53.232;6.556;2023-09-18T04:43:27;19.90;;;17.90;;
82473;SDS011;72350;53.232;6.556;2023-09-18T04:45:56;26.20;;;18.40;;
82473;SDS011;72350;53.232;6.556;2023-09-18T04:48:24;22.83;;;19.13;;
82473;SDS011;72350;53.232;6.556;2023-09-18T04:50:53;22.08;;;19.13;;
82473;SDS011;72350;53.232;6.556;2023-09-18T04:53:22;20.48;;;18.33;;
82473;SDS011;72350;53.232;6.556;2023-09-18T04:55:53;23.05;;;18.25;;
82473;SDS011;72350;53.232;6.556;2023-09-18T04:58:21;21.70;;;18.23;;
82473;SDS011;72350;53.232;6.556;2023-09-18T05:00:53;20.42;;;17.65;;
82473;SDS011;72350;53.232;6.556;2023-09-18T05:03:22;22.93;;;18.77;;
82473;SDS011;72350;53.232;6.556;2023-09-18T05:05:53;21.45;;;17.83;;
82473;SDS011;72350;53.232;6.556;2023-09-18T05:08:21;20.48;;;18.27;;
82473;SDS011;72350;53.232;6.556;2023-09-18T05:10:50;21.23;;;17.50;;
82473;SDS011;72350;53.232;6.556;2023-09-18T05:13:18;21.48;;;16.95;;
82473;SDS011;72350;53.232;6.556;2023-09-18T05:15:46;20.60;;;16.15;;
82473;SDS011;72350;53.232;6.556;2023-09-18T05:18:14;18.02;;;16.20;;
82473;SDS011;72350;53.232;6.556;2023-09-18T05:20:42;21.40;;;17.38;;
82473;SDS011;72350;53.232;6.556;2023-09-18T05:23:12;19.08;;;17.08;;
82473;SDS011;72350;53.232;6.556;2023-09-18T05:25:43;19.48;;;16.10;;
82473;SDS011;72350;53.232;6.556;2023-09-18T05:28:11;30.77;;;25.15;;
82473;SDS011;72350;53.232;6.556;2023-09-18T05:30:39;27.55;;;20.08;;
82473;SDS011;72350;53.232;6.556;2023-09-18T05:33:07;27.58;;;21.98;;
82473;SDS011;72350;53.232;6.556;2023-09-18T05:35:36;27.15;;;21.17;;
82473;SDS011;72350;53.232;6.556;2023-09-18T05:38:07;23.38;;;17.25;;
82473;SDS011;72350;53.232;6.556;2023-09-18T05:40:39;34.22;;;25.48;;
82473;SDS011;72350;53.232;6.556;2023-09-18T05:43:07;29.10;;;17.88;;
82473;SDS011;72350;53.232;6.556;2023-09-18T05:45:35;22.98;;;16.73;;
82473;SDS011;72350;53.232;6.556;2023-09-18T05:48:03;29.60;;;22.98;;
82473;SDS011;72350;53.232;6.556;2023-09-18T05:50:32;23.65;;;17.23;;
82473;SDS011;72350;53.232;6.556;2023-09-18T05:53:02;24.88;;;17.55;;
82473;SDS011;72350;53.232;6.556;2023-09-18T05:55:31;30.02;;;20.38;;
82473;SDS011;72350;53.232;6.556;2023-09-18T05:58:01;26.42;;;18.42;;
82473;SDS011;72350;53.232;6.556;2023-09-18T06:00:30;24.58;;;19.63;;
82473;SDS011;72350;53.232;6.556;2023-09-18T06:02:59;20.55;;;16.15;;
82473;SDS011;72350;53.232;6.556;2023-09-18T06:05:27;23.80;;;19.10;;
82473;SDS011;72350;53.232;6.556;2023-09-18T06:07:58;55.25;;;36.08;;
82473;SDS011;72350;53.232;6.556;2023-09-18T06:10:26;56.80;;;39.47;;
82473;SDS011;72350;53.232;6.556;2023-09-18T06:12:54;24.55;;;19.35;;
82473;SDS011;72350;53.232;6.556;2023-09-18T06:15:24;68.03;;;45.25;;
82473;SDS011;72350;53.232;6.556;2023-09-18T06:17:52;24.67;;;17.70;;
82473;SDS011;72350;53.232;6.556;2023-09-18T06:20:21;64.50;;;46.38;;
82473;SDS011;72350;53.232;6.556;2023-09-18T06:22:49;24.80;;;18.23;;
82473;SDS011;72350;53.232;6.556;2023-09-18T06:25:17;45.97;;;35.45;;
82473;SDS011;72350;53.232;6.556;2023-09-18T06:27:46;91.75;;;65.03;;
82473;SDS011;72350;53.232;6.556;2023-09-18T06:30:15;61.45;;;46.88;;
82473;SDS011;72350;53.232;6.556;2023-09-18T06:32:44;99.60;;;71.13;;
82473;SDS011;72350;53.232;6.556;2023-09-18T06:35:12;30.50;;;22.95;;
82473;SDS011;72350;53.232;6.556;2023-09-18T06:37:40;71.90;;;49.03;;
82473;SDS011;72350;53.232;6.556;2023-09-18T06:40:09;74.45;;;52.40;;
82473;SDS011;72350;53.232;6.556;2023-09-18T06:42:38;86.95;;;61.00;;
82473;SDS011;72350;53.232;6.556;2023-09-18T06:45:08;32.75;;;24.58;;
82473;SDS011;72350;53.232;6.556;2023-09-18T06:47:37;26.65;;;18.85;;
82473;SDS011;72350;53.232;6.556;2023-09-18T06:50:08;25.75;;;15.95;;
82473;SDS011;72350;53.232;6.556;2023-09-18T06:52:39;28.85;;;20.77;;
82473;SDS011;72350;53.232;6.556;2023-09-18T06:55:07;23.75;;;15.63;;
82473;SDS011;72350;53.232;6.556;2023-09-18T06:57:35;32.97;;;23.38;;
82473;SDS011;72350;53.232;6.556;2023-09-18T07:00:04;21.85;;;15.60;;
82473;SDS011;72350;53.232;6.556;2023-09-18T07:02:32;25.48;;;18.13;;
82473;SDS011;72350;53.232;6.556;2023-09-18T07:05:01;29.02;;;20.67;;
82473;SDS011;72350;53.232;6.556;2023-09-18T07:07:33;18.00;;;11.55;;
82473;SDS011;72350;53.232;6.556;2023-09-18T07:10:01;34.22;;;23.27;;
82473;SDS011;72350;53.232;6.556;2023-09-18T07:12:31;35.33;;;25.13;;
82473;SDS011;72350;53.232;6.556;2023-09-18T07:15:00;68.75;;;50.30;;
82473;SDS011;72350;53.232;6.556;2023-09-18T07:17:30;67.28;;;49.40;;
82473;SDS011;72350;53.232;6.556;2023-09-18T07:19:58;27.48;;;20.10;;
82473;SDS011;72350;53.232;6.556;2023-09-18T07:22:26;28.05;;;21.83;;
82473;SDS011;72350;53.232;6.556;2023-09-18T07:24:58;23.13;;;17.95;;
82473;SDS011;72350;53.232;6.556;2023-09-18T07:27:26;27.60;;;20.45;;
82473;SDS011;72350;53.232;6.556;2023-09-18T07:29:55;25.92;;;19.48;;
82473;SDS011;72350;53.232;6.556;2023-09-18T07:32:23;30.88;;;15.80;;
82473;SDS011;72350;53.232;6.556;2023-09-18T07:35:03;21.95;;;16.42;;
82473;SDS011;72350;53.232;6.556;2023-09-18T07:37:33;27.77;;;18.20;;
82473;SDS011;72350;53.232;6.556;2023-09-18T07:40:03;27.77;;;17.98;;
82473;SDS011;72350;53.232;6.556;2023-09-18T07:42:32;27.35;;;18.55;;
82473;SDS011;72350;53.232;6.556;2023-09-18T07:45:00;64.35;;;43.90;;
82473;SDS011;72350;53.232;6.556;2023-09-18T07:47:28;24.80;;;19.85;;
82473;SDS011;72350;53.232;6.556;2023-09-18T07:49:57;28.88;;;18.42;;
82473;SDS011;72350;53.232;6.556;2023-09-18T07:52:25;32.75;;;25.13;;
82473;SDS011;72350;53.232;6.556;2023-09-18T07:54:53;24.33;;;19.98;;
82473;SDS011;72350;53.232;6.556;2023-09-18T07:57:22;20.95;;;15.80;;
82473;SDS011;72350;53.232;6.556;2023-09-18T07:59:50;33.30;;;26.70;;
82473;SDS011;72350;53.232;6.556;2023-09-18T08:02:19;23.85;;;17.42;;
82473;SDS011;72350;53.232;6.556;2023-09-18T08:04:48;22.05;;;17.48;;
82473;SDS011;72350;53.232;6.556;2023-09-18T08:07:16;23.25;;;18.45;;
82473;SDS011;72350;53.232;6.556;2023-09-18T08:09:46;21.15;;;15.57;;
82473;SDS011;72350;53.232;6.556;2023-09-18T08:12:15;29.73;;;18.17;;
82473;SDS011;72350;53.232;6.556;2023-09-18T08:14:45;21.45;;;18.13;;
82473;SDS011;72350;53.232;6.556;2023-09-18T08:17:13;29.48;;;21.92;;
82473;SDS011;72350;53.232;6.556;2023-09-18T08:19:41;26.17;;;18.17;;
82473;SDS011;72350;53.232;6.556;2023-09-18T08:22:10;25.17;;;19.58;;
82473;SDS011;72350;53.232;6.556;2023-09-18T08:24:41;24.02;;;16.83;;
82473;SDS011;72350;53.232;6.556;2023-09-18T08:27:13;21.52;;;16.23;;
82473;SDS011;72350;53.232;6.556;2023-09-18T08:29:44;26.05;;;19.27;;
82473;SDS011;72350;53.232;6.556;2023-09-18T08:32:13;22.00;;;16.73;;
82473;SDS011;72350;53.232;6.556;2023-09-18T08:34:41;20.35;;;15.38;;
82473;SDS011;72350;53.232;6.556;2023-09-18T08:37:09;20.17;;;16.63;;
82473;SDS011;72350;53.232;6.556;2023-09-18T08:39:37;23.40;;;14.00;;
82473;SDS011;72350;53.232;6.556;2023-09-18T08:42:06;20.67;;;15.18;;
82473;SDS011;72350;53.232;6.556;2023-09-18T08:44:37;18.65;;;14.85;;
82473;SDS011;72350;53.232;6.556;2023-09-18T08:47:09;17.25;;;13.18;;
82473;SDS011;72350;53.232;6.556;2023-09-18T08:49:39;19.65;;;13.35;;
82473;SDS011;72350;53.232;6.556;2023-09-18T08:52:09;29.38;;;21.85;;
82473;SDS011;72350;53.232;6.556;2023-09-18T08:54:38;18.65;;;13.52;;
82473;SDS011;72350;53.232;6.556;2023-09-18T08:57:06;15.30;;;12.75;;
82473;SDS011;72350;53.232;6.556;2023-09-18T08:59:35;14.85;;;12.68;;
82473;SDS011;72350;53.232;6.556;2023-09-18T09:02:03;17.77;;;13.85;;
82473;SDS011;72350;53.232;6.556;2023-09-18T09:04:33;20.15;;;14.95;;
82473;SDS011;72350;53.232;6.556;2023-09-18T09:07:02;22.23;;;14.75;;
82473;SDS011;72350;53.232;6.556;2023-09-18T09:09:31;15.88;;;14.15;;
82473;SDS011;72350;53.232;6.556;2023-09-18T09:11:59;19.30;;;14.07;;
82473;SDS011;72350;53.232;6.556;2023-09-18T09:14:27;19.20;;;13.43;;
82473;SDS011;72350;53.232;6.556;2023-09-18T09:16:56;15.00;;;12.68;;
82473;SDS011;72350;53.232;6.556;2023-09-18T09:19:28;19.02;;;14.98;;
82473;SDS011;72350;53.232;6.556;2023-09-18T09:21:58;17.60;;;14.57;;
82473;SDS011;72350;53.232;6.556;2023-09-18T09:24:37;18.30;;;14.88;;
82473;SDS011;72350;53.232;6.556;2023-09-18T09:27:06;28.23;;;13.75;;
82473;SDS011;72350;53.232;6.556;2023-09-18T09:29:34;17.95;;;13.52;;
82473;SDS011;72350;53.232;6.556;2023-09-18T09:32:11;19.05;;;15.15;;
82473;SDS011;72350;53.232;6.556;2023-09-18T09:34:40;18.88;;;14.60;;
82473;SDS011;72350;53.232;6.556;2023-09-18T09:37:10;18.75;;;13.50;;
82473;SDS011;72350;53.232;6.556;2023-09-18T09:39:49;21.08;;;15.48;;
82473;SDS011;72350;53.232;6.556;2023-09-18T09:42:18;18.35;;;13.68;;
82473;SDS011;72350;53.232;6.556;2023-09-18T09:45:00;22.38;;;15.15;;
82473;SDS011;72350;53.232;6.556;2023-09-18T09:47:32;15.82;;;13.40;;
82473;SDS011;72350;53.232;6.556;2023-09-18T09:50:05;16.35;;;14.00;;
82473;SDS011;72350;53.232;6.556;2023-09-18T09:52:39;18.15;;;14.15;;
82473;SDS011;72350;53.232;6.556;2023-09-18T09:55:23;17.10;;;13.75;;
82473;SDS011;72350;53.232;6.556;2023-09-18T09:57:57;18.77;;;14.65;;
82473;SDS011;72350;53.232;6.556;2023-09-18T10:00:28;18.00;;;15.32;;
82473;SDS011;72350;53.232;6.556;2023-09-18T10:03:00;18.45;;;13.98;;
82473;SDS011;72350;53.232;6.556;2023-09-18T10:05:30;17.55;;;14.20;;
82473;SDS011;72350;53.232;6.556;2023-09-18T10:08:04;17.65;;;14.95;;
82473;SDS011;72350;53.232;6.556;2023-09-18T10:10:35;20.65;;;16.20;;
82473;SDS011;72350;53.232;6.556;2023-09-18T10:13:09;19.63;;;17.52;;
82473;SDS011;72350;53.232;6.556;2023-09-18T10:15:39;20.20;;;16.27;;
82473;SDS011;72350;53.232;6.556;2023-09-18T10:20:56;19.30;;;17.08;;
82473;SDS011;72350;53.232;6.556;2023-09-18T10:23:37;17.50;;;15.60;;
82473;SDS011;72350;53.232;6.556;2023-09-18T10:26:13;19.88;;;17.67;;
82473;SDS011;72350;53.232;6.556;2023-09-18T10:28:50;20.63;;;16.92;;
82473;SDS011;72350;53.232;6.556;2023-09-18T10:31:22;23.38;;;18.17;;
82473;SDS011;72350;53.232;6.556;2023-09-18T10:33:51;18.88;;;16.10;;
82473;SDS011;72350;53.232;6.556;2023-09-18T10:36:21;21.30;;;18.55;;
82473;SDS011;72350;53.232;6.556;2023-09-18T10:38:51;18.35;;;16.33;;
82473;SDS011;72350;53.232;6.556;2023-09-18T10:41:22;22.95;;;17.98;;
82473;SDS011;72350;53.232;6.556;2023-09-18T10:43:51;16.63;;;14.10;;
82473;SDS011;72350;53.232;6.556;2023-09-18T10:46:23;21.50;;;17.35;;
82473;SDS011;72350;53.232;6.556;2023-09-18T10:48:53;17.50;;;15.43;;
82473;SDS011;72350;53.232;6.556;2023-09-18T10:51:22;17.52;;;15.40;;
82473;SDS011;72350;53.232;6.556;2023-09-18T10:53:53;13.95;;;12.25;;
82473;SDS011;72350;53.232;6.556;2023-09-18T10:56:24;15.10;;;12.27;;
82473;SDS011;72350;53.232;6.556;2023-09-18T10:58:56;16.67;;;11.23;;
82473;SDS011;72350;53.232;6.556;2023-09-18T11:01:27;11.68;;;10.48;;
82473;SDS011;72350;53.232;6.556;2023-09-18T11:03:57;13.13;;;11.73;;
82473;SDS011;72350;53.232;6.556;2023-09-18T11:06:28;12.10;;;10.70;;
82473;SDS011;72350;53.232;6.556;2023-09-18T11:09:04;12.63;;;9.52;;
82473;SDS011;72350;53.232;6.556;2023-09-18T11:11:36;10.82;;;9.73;;
82473;SDS011;72350;53.232;6.556;2023-09-18T11:14:04;9.77;;;8.63;;
82473;SDS011;72350;53.232;6.556;2023-09-18T11:16:38;13.40;;;9.23;;
82473;SDS011;72350;53.232;6.556;2023-09-18T11:19:08;10.60;;;8.55;;
82473;SDS011;72350;53.232;6.556;2023-09-18T11:21:38;12.60;;;7.93;;
82473;SDS011;72350;53.232;6.556;2023-09-18T11:24:08;9.85;;;6.10;;
82473;SDS011;72350;53.232;6.556;2023-09-18T11:26:45;7.65;;;6.95;;
82473;SDS011;72350;53.232;6.556;2023-09-18T11:29:14;6.85;;;6.15;;
82473;SDS011;72350;53.232;6.556;2023-09-18T11:31:46;11.25;;;7.65;;
82473;SDS011;72350;53.232;6.556;2023-09-18T11:34:19;8.43;;;7.07;;
82473;SDS011;72350;53.232;6.556;2023-09-18T11:36:48;7.80;;;6.10;;
82473;SDS011;72350;53.232;6.556;2023-09-18T11:39:35;8.32;;;6.03;;
82473;SDS011;72350;53.232;6.556;2023-09-18T11:42:11;9.80;;;5.70;;
82473;SDS011;72350;53.232;6.556;2023-09-18T11:44:40;9.25;;;5.72;;
82473;SDS011;72350;53.232;6.556;2023-09-18T11:47:14;6.75;;;5.55;;
82473;SDS011;72350;53.232;6.556;2023-09-18T11:49:51;10.77;;;5.18;;
82473;SDS011;72350;53.232;6.556;2023-09-18T11:52:23;6.85;;;5.32;;
82473;SDS011;72350;53.232;6.556;2023-09-18T11:54:54;8.20;;;4.70;;
82473;SDS011;72350;53.232;6.556;2023-09-18T11:57:23;14.45;;;7.28;;
82473;SDS011;72350;53.232;6.556;2023-09-18T12:02:30;7.63;;;4.28;;
82473;SDS011;72350;53.232;6.556;2023-09-18T12:05:05;7.80;;;5.22;;
82473;SDS011;72350;53.232;6.556;2023-09-18T12:07:37;8.50;;;5.35;;
82473;SDS011;72350;53.232;6.556;2023-09-18T12:10:10;9.25;;;4.97;;
82473;SDS011;72350;53.232;6.556;2023-09-18T12:12:38;6.10;;;5.50;;
82473;SDS011;72350;53.232;6.556;2023-09-18T12:15:06;8.05;;;5.40;;
82473;SDS011;72350;53.232;6.556;2023-09-18T12:17:38;7.53;;;5.75;;
82473;SDS011;72350;53.232;6.556;2023-09-18T12:20:06;7.68;;;5.28;;
82473;SDS011;72350;53.232;6.556;2023-09-18T12:22:46;7.38;;;4.60;;
82473;SDS011;72350;53.232;6.556;2023-09-18T12:25:17;6.63;;;4.50;;
82473;SDS011;72350;53.232;6.556;2023-09-18T12:27:45;6.13;;;5.18;;
82473;SDS011;72350;53.232;6.556;2023-09-18T12:30:13;5.78;;;4.60;;
82473;SDS011;72350;53.232;6.556;2023-09-18T12:32:47;4.55;;;4.13;;
82473;SDS011;72350;53.232;6.556;2023-09-18T12:35:15;5.57;;;3.95;;
82473;SDS011;72350;53.232;6.556;2023-09-18T12:37:45;4.10;;;3.70;;
82473;SDS011;72350;53.232;6.556;2023-09-18T12:40:24;6.35;;;4.80;;
82473;SDS011;72350;53.232;6.556;2023-09-18T12:42:54;4.85;;;4.28;;
82473;SDS011;72350;53.232;6.556;2023-09-18T12:45:24;6.10;;;5.55;;
82473;SDS011;72350;53.232;6.556;2023-09-18T12:47:54;8.25;;;4.93;;
82473;SDS011;72350;53.232;6.556;2023-09-18T12:50:23;7.90;;;4.38;;
82473;SDS011;72350;53.232;6.556;2023-09-18T12:53:05;7.70;;;4.80;;
82473;SDS011;72350;53.232;6.556;2023-09-18T12:55:36;5.80;;;4.82;;
82473;SDS011;72350;53.232;6.556;2023-09-18T12:58:04;8.32;;;4.80;;
82473;SDS011;72350;53.232;6.556;2023-09-18T13:00:34;7.07;;;5.45;;
82473;SDS011;72350;53.232;6.556;2023-09-18T13:03:03;6.47;;;4.80;;
82473;SDS011;72350;53.232;6.556;2023-09-18T13:05:32;5.85;;;4.18;;
82473;SDS011;72350;53.232;6.556;2023-09-18T13:08:03;4.05;;;3.60;;
82473;SDS011;72350;53.232;6.556;2023-09-18T13:10:46;8.52;;;3.83;;
82473;SDS011;72350;53.232;6.556;2023-09-18T13:13:16;5.30;;;3.55;;
82473;SDS011;72350;53.232;6.556;2023-09-18T13:15:45;5.63;;;3.72;;
82473;SDS011;72350;53.232;6.556;2023-09-18T13:18:14;5.88;;;3.70;;
82473;SDS011;72350;53.232;6.556;2023-09-18T13:20:43;4.22;;;3.53;;
82473;SDS011;72350;53.232;6.556;2023-09-18T13:23:11;4.90;;;3.90;;
82473;SDS011;72350;53.232;6.556;2023-09-18T13:25:40;7.45;;;3.80;;
82473;SDS011;72350;53.232;6.556;2023-09-18T13:28:12;3.75;;;3.45;;
82473;SDS011;72350;53.232;6.556;2023-09-18T13:30:42;4.70;;;3.67;;
82473;SDS011;72350;53.232;6.556;2023-09-18T13:33:10;6.25;;;3.92;;
82473;SDS011;72350;53.232;6.556;2023-09-18T13:35:40;5.57;;;3.83;;
82473;SDS011;72350;53.232;6.556;2023-09-18T13:38:10;7.10;;;4.82;;
82473;SDS011;72350;53.232;6.556;2023-09-18T13:40:39;6.50;;;3.92;;
82473;SDS011;72350;53.232;6.556;2023-09-18T13:43:07;6.78;;;5.40;;
82473;SDS011;72350;53.232;6.556;2023-09-18T13:45:37;4.82;;;3.78;;
82473;SDS011;72350;53.232;6.556;2023-09-18T13:48:05;6.10;;;3.72;;
82473;SDS011;72350;53.232;6.556;2023-09-18T13:50:34;5.97;;;3.42;;
82473;SDS011;72350;53.232;6.556;2023-09-18T13:53:03;5.53;;;4.05;;
82473;SDS011;72350;53.232;6.556;2023-09-18T13:55:32;5.20;;;3.83;;
82473;SDS011;72350;53.232;6.556;2023-09-18T13:58:00;7.43;;;4.03;;
82473;SDS011;72350;53.232;6.556;2023-09-18T14:00:30;4.03;;;3.60;;
82473;SDS011;72350;53.232;6.556;2023-09-18T14:02:59;4.03;;;3.45;;
82473;SDS011;72350;53.232;6.556;2023-09-18T14:05:29;4.22;;;3.72;;
82473;SDS011;72350;53.232;6.556;2023-09-18T14:08:00;5.80;;;4.10;;
82473;SDS011;72350;53.232;6.556;2023-09-18T14:10:29;6.20;;;3.88;;
82473;SDS011;72350;53.232;6.556;2023-09-18T14:12:57;5.32;;;3.58;;
82473;SDS011;72350;53.232;6.556;2023-09-18T14:15:25;6.00;;;4.00;;
82473;SDS011;72350;53.232;6.556;2023-09-18T14:17:53;7.32;;;4.10;;
82473;SDS011;72350;53.232;6.556;2023-09-18T14:20:22;4.70;;;3.58;;
82473;SDS011;72350;53.232;6.556;2023-09-18T14:22:50;4.10;;;3.50;;
82473;SDS011;72350;53.232;6.556;2023-09-18T14:25:18;5.88;;;4.25;;
82473;SDS011;72350;53.232;6.556;2023-09-18T14:27:48;6.53;;;4.18;;
82473;SDS011;72350;53.232;6.556;2023-09-18T14:30:16;6.85;;;3.97;;
82473;SDS011;72350;53.232;6.556;2023-09-18T14:32:46;4.05;;;3.35;;
82473;SDS011;72350;53.232;6.556;2023-09-18T14:35:14;8.63;;;3.53;;
82473;SDS011;72350;53.232;6.556;2023-09-18T14:37:43;6.15;;;3.25;;
82473;SDS011;72350;53.232;6.556;2023-09-18T14:40:11;3.75;;;3.13;;
82473;SDS011;72350;53.232;6.556;2023-09-18T14:42:41;5.28;;;3.50;;
82473;SDS011;72350;53.232;6.556;2023-09-18T14:45:09;5.13;;;3.58;;
82473;SDS011;72350;53.232;6.556;2023-09-18T14:47:39;4.90;;;3.47;;
82473;SDS011;72350;53.232;6.556;2023-09-18T14:50:07;6.35;;;3.70;;